createdAt,value
2023-03-12T00:01:30.745Z,43.75
2023-03-12T00:03:57.323Z,43.66
2023-03-12T00:06:23.837Z,43.63
2023-03-12T00:08:50.293Z,43.85
2023-03-12T00:11:16.753Z,43.81
2023-03-12T00:13:43.245Z,43.95
2023-03-12T00:16:09.811Z,43.82
2023-03-12T00:18:36.326Z,43.67
2023-03-12T00:21:02.783Z,43.75
2023-03-12T00:23:29.241Z,43.85
2023-03-12T00:25:55.679Z,43.92
2023-03-12T00:28:22.122Z,43.96
2023-03-12T00:30:48.574Z,43.92
2023-03-12T00:33:15.020Z,44.04
2023-03-12T00:35:41.510Z,43.89
2023-03-12T00:38:08.012Z,44.10
2023-03-12T00:40:34.465Z,43.84
2023-03-12T00:43:00.929Z,44.06
2023-03-12T00:45:27.402Z,43.90
2023-03-12T00:47:53.868Z,44.07
2023-03-12T00:50:20.331Z,43.85
2023-03-12T00:52:46.773Z,43.94
2023-03-12T00:55:13.244Z,43.94
2023-03-12T00:57:39.714Z,44.06
2023-03-12T01:00:06.189Z,43.97
2023-03-12T01:02:32.746Z,43.81
2023-03-12T01:04:59.227Z,43.86
2023-03-12T01:07:25.688Z,43.94
2023-03-12T01:09:52.153Z,43.88
2023-03-12T01:12:18.605Z,44.13
2023-03-12T01:14:45.045Z,43.99
2023-03-12T01:17:11.491Z,43.89
2023-03-12T01:19:37.980Z,44.29
2023-03-12T01:22:04.434Z,44.16
2023-03-12T01:24:30.907Z,44.12
2023-03-12T01:26:57.399Z,44.11
2023-03-12T01:29:23.858Z,44.11
2023-03-12T01:31:50.372Z,44.34
2023-03-12T01:34:16.867Z,44.42
2023-03-12T01:36:43.334Z,44.40
2023-03-12T01:39:09.775Z,44.39
2023-03-12T01:41:36.224Z,44.19
2023-03-12T01:44:02.674Z,44.21
2023-03-12T01:46:29.165Z,44.07
2023-03-12T01:48:55.634Z,43.97
2023-03-12T01:51:22.087Z,44.06
2023-03-12T01:53:48.554Z,44.15
2023-03-12T01:56:15.012Z,44.45
2023-03-12T01:58:41.467Z,43.99
2023-03-12T02:01:08.016Z,44.15
2023-03-12T02:03:34.570Z,44.34
2023-03-12T02:06:01.077Z,44.33
2023-03-12T02:08:27.519Z,44.14
2023-03-12T02:10:53.961Z,44.28
2023-03-12T02:13:20.422Z,44.40
2023-03-12T02:15:46.873Z,44.39
2023-03-12T02:18:13.330Z,44.43
2023-03-12T02:20:39.775Z,44.15
2023-03-12T02:23:06.224Z,44.15
2023-03-12T02:25:32.678Z,44.24
2023-03-12T02:27:59.139Z,44.01
2023-03-12T02:30:25.606Z,44.56
2023-03-12T02:32:52.119Z,44.35
2023-03-12T02:35:18.604Z,44.27
2023-03-12T02:37:45.307Z,44.25
2023-03-12T02:40:11.766Z,44.47
2023-03-12T02:42:38.275Z,44.49
2023-03-12T02:45:04.761Z,44.25
2023-03-12T02:47:31.237Z,44.78
2023-03-12T02:49:57.708Z,44.59
2023-03-12T02:52:24.155Z,44.29
2023-03-12T02:54:50.628Z,44.37
2023-03-12T02:57:17.084Z,44.15
2023-03-12T02:59:43.545Z,44.46
2023-03-12T03:02:09.991Z,44.30
2023-03-12T03:04:36.434Z,44.28
2023-03-12T03:07:02.934Z,44.30
2023-03-12T03:09:29.417Z,44.06
2023-03-12T03:11:55.875Z,44.27
2023-03-12T03:14:22.354Z,44.27
2023-03-12T03:16:48.822Z,44.31
2023-03-12T03:19:15.266Z,44.35
2023-03-12T03:21:41.710Z,44.42
2023-03-12T03:24:08.145Z,44.40
2023-03-12T03:26:34.588Z,44.41
2023-03-12T03:29:01.047Z,44.57
2023-03-12T03:31:27.637Z,44.64
2023-03-12T03:33:54.190Z,44.57
2023-03-12T03:36:20.641Z,44.75
2023-03-12T03:38:47.074Z,44.65
2023-03-12T03:41:13.523Z,44.81
2023-03-12T03:43:39.973Z,44.50
2023-03-12T03:46:06.477Z,44.36
2023-03-12T03:48:32.989Z,44.35
2023-03-12T03:50:59.441Z,44.51
2023-03-12T03:53:25.902Z,44.37
2023-03-12T03:55:52.350Z,44.71
2023-03-12T03:58:18.792Z,44.54
2023-03-12T04:00:45.258Z,44.34
2023-03-12T04:03:11.780Z,44.58
2023-03-12T04:05:38.327Z,44.68
2023-03-12T04:08:04.796Z,44.55
2023-03-12T04:10:31.283Z,44.70
2023-03-12T04:12:57.845Z,44.68
2023-03-12T04:15:24.394Z,44.55
2023-03-12T04:17:50.963Z,44.40
2023-03-12T04:20:17.488Z,44.66
2023-03-12T04:22:43.947Z,44.47
2023-03-12T04:25:10.387Z,44.70
2023-03-12T04:27:36.841Z,44.53
2023-03-12T04:30:03.308Z,44.93
2023-03-12T04:32:29.821Z,44.93
2023-03-12T04:34:56.294Z,44.69
2023-03-12T04:37:22.733Z,44.49
2023-03-12T04:39:49.173Z,44.55
2023-03-12T04:42:15.612Z,44.75
2023-03-12T04:44:42.058Z,44.81
2023-03-12T04:47:08.500Z,44.74
2023-03-12T04:49:34.950Z,44.70
2023-03-12T04:52:01.399Z,44.78
2023-03-12T04:54:27.842Z,44.70
2023-03-12T04:56:54.287Z,44.68
2023-03-12T04:59:20.763Z,44.56
2023-03-12T05:01:47.280Z,44.52
2023-03-12T05:04:13.783Z,44.41
2023-03-12T05:06:40.277Z,44.69
2023-03-12T05:09:06.705Z,44.75
2023-03-12T05:11:33.152Z,44.58
2023-03-12T05:13:59.599Z,44.78
2023-03-12T05:16:26.090Z,44.66
2023-03-12T05:18:52.547Z,44.36
2023-03-12T05:21:18.988Z,44.69
2023-03-12T05:23:45.427Z,44.52
2023-03-12T05:26:11.864Z,44.40
2023-03-12T05:28:38.305Z,44.24
2023-03-12T05:31:04.759Z,44.51
2023-03-12T05:33:31.196Z,44.54
2023-03-12T05:35:57.766Z,44.49
2023-03-12T05:38:24.246Z,45.35
2023-03-12T05:40:50.708Z,45.80
2023-03-12T05:43:17.153Z,45.79
2023-03-12T05:45:43.615Z,45.86
2023-03-12T05:48:10.066Z,45.99
2023-03-12T05:50:36.518Z,45.63
2023-03-12T05:53:02.961Z,45.89
2023-03-12T05:55:29.388Z,45.95
2023-03-12T05:57:55.841Z,46.61
2023-03-12T06:00:22.277Z,46.40
2023-03-12T06:02:48.726Z,46.07
2023-03-12T06:05:15.162Z,46.17
2023-03-12T06:07:41.604Z,46.17
2023-03-12T06:10:08.086Z,46.07
2023-03-12T06:12:34.524Z,46.14
2023-03-12T06:15:00.971Z,45.80
2023-03-12T06:17:27.417Z,45.84
2023-03-12T06:19:53.852Z,45.82
2023-03-12T06:22:20.293Z,45.59
2023-03-12T06:24:46.731Z,45.83
2023-03-12T06:27:13.182Z,45.65
2023-03-12T06:29:39.628Z,45.92
2023-03-12T06:32:06.071Z,45.68
2023-03-12T06:34:32.506Z,45.98
2023-03-12T06:36:58.957Z,45.76
2023-03-12T06:39:25.434Z,45.79
2023-03-12T06:41:51.872Z,45.76
2023-03-12T06:44:18.309Z,45.71
2023-03-12T06:46:44.796Z,45.84
2023-03-12T06:49:11.347Z,45.85
2023-03-12T06:51:37.782Z,45.89
2023-03-12T06:54:04.218Z,45.73
2023-03-12T06:56:30.672Z,46.00
2023-03-12T06:58:57.110Z,45.83
2023-03-12T07:01:23.558Z,45.59
2023-03-12T07:03:50.010Z,45.79
2023-03-12T07:06:16.449Z,45.84
2023-03-12T07:08:42.898Z,45.79
2023-03-12T07:11:09.357Z,45.82
2023-03-12T07:13:35.862Z,45.63
2023-03-12T07:16:02.362Z,45.77
2023-03-12T07:18:28.845Z,45.86
2023-03-12T07:20:55.311Z,45.40
2023-03-12T07:23:21.769Z,45.78
2023-03-12T07:25:48.197Z,45.75
2023-03-12T07:28:14.632Z,45.76
2023-03-12T07:30:41.114Z,45.86
2023-03-12T07:33:07.625Z,45.75
2023-03-12T07:35:34.329Z,45.73
2023-03-12T07:38:00.845Z,45.65
2023-03-12T07:40:28.145Z,45.55
2023-03-12T07:42:54.601Z,45.75
2023-03-12T07:45:21.076Z,45.48
2023-03-12T07:47:47.770Z,45.65
2023-03-12T07:50:14.317Z,45.61
2023-03-12T07:52:40.795Z,45.65
2023-03-12T07:55:07.316Z,45.69
2023-03-12T07:57:33.853Z,45.62
2023-03-12T08:00:00.419Z,45.64
2023-03-12T08:02:26.958Z,45.37
2023-03-12T08:04:53.524Z,45.44
2023-03-12T08:07:20.062Z,45.42
2023-03-12T08:09:46.708Z,45.36
2023-03-12T08:12:13.261Z,45.61
2023-03-12T08:14:39.788Z,45.54
2023-03-12T08:17:06.246Z,45.54
2023-03-12T08:19:32.708Z,45.30
2023-03-12T08:21:59.204Z,45.48
2023-03-12T08:24:25.637Z,45.45
2023-03-12T08:26:52.085Z,45.34
2023-03-12T08:29:18.531Z,45.25
2023-03-12T08:32:01.440Z,45.35
2023-03-12T08:34:28.179Z,45.13
2023-03-12T08:36:54.661Z,45.25
2023-03-12T08:39:21.134Z,45.30
2023-03-12T08:41:47.588Z,45.16
2023-03-12T08:44:14.038Z,45.19
2023-03-12T08:46:40.475Z,45.31
2023-03-12T08:49:06.908Z,45.46
2023-03-12T08:51:33.370Z,45.47
2023-03-12T08:53:59.808Z,45.30
2023-03-12T08:56:26.246Z,45.69
2023-03-12T08:58:52.696Z,45.62
2023-03-12T09:01:19.136Z,45.33
2023-03-12T09:03:45.586Z,45.66
2023-03-12T09:06:12.019Z,45.66
2023-03-12T09:08:38.498Z,45.59
2023-03-12T09:11:04.960Z,45.87
2023-03-12T09:13:50.737Z,46.29
2023-03-12T09:16:17.843Z,46.17
2023-03-12T09:18:44.284Z,45.90
2023-03-12T09:21:10.710Z,45.92
2023-03-12T09:23:37.151Z,46.06
2023-03-12T09:26:03.623Z,45.89
2023-03-12T09:28:30.102Z,46.14
2023-03-12T09:30:56.608Z,46.04
2023-03-12T09:33:23.068Z,46.02
2023-03-12T09:35:49.564Z,45.69
2023-03-12T09:38:16.000Z,45.71
2023-03-12T09:40:42.447Z,45.67
2023-03-12T09:43:08.887Z,45.80
2023-03-12T09:45:35.319Z,45.73
2023-03-12T09:48:01.771Z,45.67
2023-03-12T09:50:28.220Z,45.78
2023-03-12T09:52:54.681Z,45.91
2023-03-12T09:55:21.126Z,45.37
2023-03-12T09:57:47.569Z,45.40
2023-03-12T10:00:14.003Z,45.25
2023-03-12T10:02:40.449Z,45.29
2023-03-12T10:05:06.933Z,45.14
2023-03-12T10:07:33.424Z,45.46
2023-03-12T10:09:59.934Z,45.28
2023-03-12T10:12:26.469Z,45.24
2023-03-12T10:14:52.940Z,45.42
2023-03-12T10:17:19.386Z,45.37
2023-03-12T10:19:45.836Z,45.26
2023-03-12T10:22:12.270Z,45.36
2023-03-12T10:24:38.711Z,45.17
2023-03-12T10:27:05.168Z,45.48
2023-03-12T10:29:31.630Z,45.36
2023-03-12T10:31:58.095Z,45.46
2023-03-12T10:34:24.522Z,45.37
2023-03-12T10:36:50.974Z,45.45
2023-03-12T10:39:17.469Z,45.45
2023-03-12T10:41:43.907Z,45.41
2023-03-12T10:44:10.359Z,45.50
2023-03-12T10:46:36.826Z,45.40
2023-03-12T10:49:03.323Z,45.54
2023-03-12T10:51:29.766Z,45.55
2023-03-12T10:53:56.220Z,45.51
2023-03-12T10:56:22.679Z,45.61
2023-03-12T10:58:49.123Z,45.54
2023-03-12T11:01:15.606Z,45.36
2023-03-12T11:03:42.110Z,45.38
2023-03-12T11:06:08.602Z,45.58
2023-03-12T11:08:35.094Z,45.55
2023-03-12T11:11:01.560Z,45.77
2023-03-12T11:13:28.008Z,45.27
2023-03-12T11:15:54.478Z,45.30
2023-03-12T11:18:20.958Z,45.26
2023-03-12T11:20:47.403Z,45.42
2023-03-12T11:23:13.847Z,45.51
2023-03-12T11:25:40.330Z,45.55
2023-03-12T11:28:06.831Z,45.31
2023-03-12T11:30:33.351Z,45.43
2023-03-12T11:32:59.852Z,45.63
2023-03-12T11:35:26.321Z,45.37
2023-03-12T11:37:52.769Z,45.49
2023-03-12T11:40:19.214Z,45.20
2023-03-12T11:42:45.665Z,45.46
2023-03-12T11:45:12.135Z,45.43
2023-03-12T11:47:38.641Z,45.49
2023-03-12T11:50:05.219Z,45.50
2023-03-12T11:52:31.701Z,45.46
2023-03-12T11:54:58.166Z,45.37
2023-03-12T11:57:24.622Z,45.45
2023-03-12T11:59:51.070Z,45.43
2023-03-12T12:02:17.530Z,45.39
2023-03-12T12:04:44.017Z,45.33
2023-03-12T12:07:10.739Z,45.35
2023-03-12T12:09:37.199Z,45.36
2023-03-12T12:12:05.677Z,45.56
2023-03-12T12:14:32.276Z,45.46
2023-03-12T12:16:58.731Z,45.33
2023-03-12T12:19:25.194Z,45.39
2023-03-12T12:21:51.668Z,45.36
2023-03-12T12:24:18.535Z,45.36
2023-03-12T12:26:45.193Z,45.33
2023-03-12T12:29:11.684Z,45.33
2023-03-12T12:31:38.143Z,45.39
2023-03-12T12:34:04.603Z,45.42
2023-03-12T12:36:31.065Z,45.23
2023-03-12T12:38:57.525Z,45.44
2023-03-12T12:41:23.999Z,45.32
2023-03-12T12:43:50.483Z,45.42
2023-03-12T12:46:17.058Z,45.27
2023-03-12T12:48:43.557Z,45.09
2023-03-12T12:51:10.770Z,45.43
2023-03-12T12:53:37.275Z,45.30
2023-03-12T12:56:03.733Z,45.21
2023-03-12T12:58:30.198Z,45.24
2023-03-12T13:00:56.671Z,45.57
2023-03-12T13:03:23.149Z,45.31
2023-03-12T13:05:49.623Z,45.21
2023-03-12T13:08:16.096Z,45.18
2023-03-12T13:10:48.941Z,45.17
2023-03-12T13:13:26.227Z,45.09
2023-03-12T13:15:53.768Z,45.39
2023-03-12T13:18:20.238Z,45.35
2023-03-12T13:20:46.676Z,45.22
2023-03-12T13:23:13.171Z,45.21
2023-03-12T13:25:39.609Z,45.17
2023-03-12T13:28:06.060Z,45.38
2023-03-12T13:30:32.534Z,45.33
2023-03-12T13:32:59.060Z,45.17
2023-03-12T13:35:25.524Z,45.10
2023-03-12T13:37:51.996Z,45.02
2023-03-12T13:40:18.444Z,45.25
2023-03-12T13:42:44.889Z,45.27
2023-03-12T13:45:11.360Z,45.29
2023-03-12T13:47:37.881Z,45.32
2023-03-12T13:50:04.367Z,45.44
2023-03-12T13:52:30.836Z,45.91
2023-03-12T13:54:57.314Z,46.61
2023-03-12T13:57:23.762Z,47.40
2023-03-12T13:59:50.226Z,48.44
2023-03-12T14:02:16.681Z,48.87
2023-03-12T14:04:43.199Z,49.52
2023-03-12T14:07:09.720Z,50.44
2023-03-12T14:09:37.700Z,50.35
2023-03-12T14:12:05.177Z,50.21
2023-03-12T14:14:31.666Z,49.32
2023-03-12T14:17:00.869Z,49.32
2023-03-12T14:19:27.370Z,49.09
2023-03-12T14:21:53.849Z,49.07
2023-03-12T14:24:20.308Z,49.00
2023-03-12T14:26:46.777Z,48.35
2023-03-12T14:29:13.224Z,48.20
2023-03-12T14:31:39.761Z,48.40
2023-03-12T14:34:06.325Z,48.65
2023-03-12T14:36:32.777Z,48.17
2023-03-12T14:38:59.242Z,48.16
2023-03-12T14:41:25.688Z,48.32
2023-03-12T14:43:52.143Z,48.51
2023-03-12T14:46:18.634Z,48.83
2023-03-12T14:48:45.120Z,49.16
2023-03-12T14:51:11.609Z,49.43
2023-03-12T14:53:38.074Z,49.78
2023-03-12T14:56:04.512Z,49.99
2023-03-12T14:58:30.984Z,49.76
2023-03-12T15:00:57.446Z,48.47
2023-03-12T15:03:23.924Z,48.19
2023-03-12T15:05:50.395Z,49.77
2023-03-12T15:08:16.861Z,49.59
2023-03-12T15:10:43.406Z,49.46
2023-03-12T15:13:09.854Z,49.26
2023-03-12T15:15:36.297Z,49.20
2023-03-12T15:18:02.746Z,48.99
2023-03-12T15:20:29.192Z,49.04
2023-03-12T15:22:55.623Z,49.01
2023-03-12T15:25:22.071Z,48.91
2023-03-12T15:27:48.515Z,48.91
2023-03-12T15:30:14.956Z,49.01
2023-03-12T15:32:41.461Z,48.83
2023-03-12T15:35:08.117Z,48.90
2023-03-12T15:37:34.763Z,48.78
2023-03-12T15:40:01.234Z,48.92
2023-03-12T15:42:27.720Z,48.92
2023-03-12T15:44:54.214Z,48.83
2023-03-12T15:47:20.725Z,48.63
2023-03-12T15:49:47.182Z,48.74
2023-03-12T15:52:13.638Z,48.69
2023-03-12T15:54:40.088Z,48.64
2023-03-12T15:57:06.548Z,48.65
2023-03-12T15:59:33.005Z,48.63
2023-03-12T16:01:59.564Z,48.49
2023-03-12T16:04:26.065Z,48.61
2023-03-12T16:06:52.535Z,48.55
2023-03-12T16:09:18.977Z,48.69
2023-03-12T16:11:45.410Z,48.63
2023-03-12T16:14:11.863Z,48.58
2023-03-12T16:16:38.380Z,48.40
2023-03-12T16:19:04.849Z,48.47
2023-03-12T16:21:31.353Z,48.41
2023-03-12T16:23:57.786Z,48.31
2023-03-12T16:26:24.239Z,48.37
2023-03-12T16:28:50.683Z,48.17
2023-03-12T16:31:17.170Z,48.00
2023-03-12T16:33:43.669Z,48.08
2023-03-12T16:36:10.138Z,47.67
2023-03-12T16:38:36.602Z,47.91
2023-03-12T16:41:03.031Z,47.84
2023-03-12T16:43:29.458Z,47.90
2023-03-12T16:45:55.971Z,47.82
2023-03-12T16:48:22.503Z,47.63
2023-03-12T16:50:48.963Z,47.82
2023-03-12T16:53:15.413Z,47.82
2023-03-12T16:55:41.870Z,47.59
2023-03-12T16:58:08.304Z,47.52
2023-03-12T17:00:34.774Z,47.52
2023-03-12T17:03:01.927Z,47.45
2023-03-12T17:05:28.452Z,47.49
2023-03-12T17:07:54.899Z,47.51
2023-03-12T17:10:21.331Z,47.74
2023-03-12T17:12:48.503Z,47.53
2023-03-12T17:15:15.050Z,47.69
2023-03-12T17:17:41.493Z,47.58
2023-03-12T17:20:07.964Z,47.48
2023-03-12T17:22:34.418Z,47.27
2023-03-12T17:25:00.856Z,47.25
2023-03-12T17:27:27.310Z,47.27
2023-03-12T17:29:53.785Z,47.49
2023-03-12T17:32:20.290Z,47.58
2023-03-12T17:34:46.722Z,47.48
2023-03-12T17:37:13.205Z,47.63
2023-03-12T17:39:39.658Z,47.75
2023-03-12T17:42:06.092Z,48.20
2023-03-12T17:44:32.538Z,48.29
2023-03-12T17:46:59.924Z,48.49
2023-03-12T17:49:26.484Z,49.09
2023-03-12T17:51:52.936Z,49.00
2023-03-12T17:54:19.388Z,48.80
2023-03-12T17:56:45.836Z,49.01
2023-03-12T17:59:12.289Z,49.03
2023-03-12T18:01:38.738Z,49.28
2023-03-12T18:04:05.180Z,49.31
2023-03-12T18:06:31.642Z,49.38
2023-03-12T18:08:58.119Z,49.36
2023-03-12T18:11:24.618Z,49.49
2023-03-12T18:13:51.077Z,49.55
2023-03-12T18:16:17.563Z,49.45
2023-03-12T18:18:44.061Z,49.39
2023-03-12T18:21:10.507Z,49.28
2023-03-12T18:23:36.973Z,49.67
2023-03-12T18:26:03.440Z,49.51
2023-03-12T18:28:29.869Z,49.35
2023-03-12T18:30:56.420Z,49.66
2023-03-12T18:33:22.906Z,49.54
2023-03-12T18:35:49.405Z,49.41
2023-03-12T18:38:15.898Z,49.35
2023-03-12T18:40:42.330Z,49.25
2023-03-12T18:43:08.766Z,49.45
2023-03-12T18:45:35.244Z,49.38
2023-03-12T18:48:01.711Z,49.37
2023-03-12T18:50:28.161Z,49.24
2023-03-12T18:52:54.589Z,48.95
2023-03-12T18:55:21.030Z,48.89
2023-03-12T18:57:47.505Z,48.84
2023-03-12T19:00:13.980Z,48.98
2023-03-12T19:02:40.451Z,48.98
2023-03-12T19:05:06.905Z,49.04
2023-03-12T19:07:33.399Z,49.07
2023-03-12T19:09:59.854Z,49.16
2023-03-12T19:12:26.318Z,48.94
2023-03-12T19:14:52.764Z,48.88
2023-03-12T19:17:19.274Z,48.96
2023-03-12T19:19:45.729Z,48.86
2023-03-12T19:22:12.181Z,48.77
2023-03-12T19:24:38.627Z,49.11
2023-03-12T19:27:05.087Z,48.70
2023-03-12T19:29:31.530Z,48.61
2023-03-12T19:31:58.049Z,48.68
2023-03-12T19:34:24.526Z,48.70
2023-03-12T19:36:50.968Z,48.65
2023-03-12T19:39:21.666Z,48.74
2023-03-12T19:41:48.285Z,48.44
2023-03-12T19:44:14.765Z,48.37
2023-03-12T19:46:41.220Z,48.20
2023-03-12T19:49:07.702Z,48.23
2023-03-12T19:51:34.160Z,48.07
2023-03-12T19:54:00.626Z,48.00
2023-03-12T19:56:27.087Z,48.17
2023-03-12T19:58:53.522Z,48.04
2023-03-12T20:01:19.974Z,48.35
2023-03-12T20:03:46.429Z,48.27
2023-03-12T20:06:12.885Z,48.38
2023-03-12T20:08:39.339Z,48.39
2023-03-12T20:11:05.788Z,48.58
2023-03-12T20:13:32.235Z,48.07
2023-03-12T20:15:58.675Z,47.46
2023-03-12T20:18:25.128Z,48.45
2023-03-12T20:20:51.595Z,48.70
2023-03-12T20:23:18.055Z,48.69
2023-03-12T20:25:44.517Z,48.67
2023-03-12T20:28:10.992Z,48.53
2023-03-12T20:30:37.438Z,48.50
2023-03-12T20:33:03.920Z,48.53
2023-03-12T20:35:30.444Z,48.62
2023-03-12T20:37:56.923Z,48.53
2023-03-12T20:40:23.369Z,48.67
2023-03-12T20:42:49.822Z,48.80
2023-03-12T20:45:16.279Z,49.00
2023-03-12T20:47:42.727Z,49.32
2023-03-12T20:50:09.190Z,49.61
2023-03-12T20:52:35.646Z,50.08
2023-03-12T20:55:02.097Z,49.88
2023-03-12T20:57:28.557Z,49.73
2023-03-12T20:59:55.001Z,49.65
2023-03-12T21:02:21.494Z,49.57
2023-03-12T21:04:48.006Z,49.31
2023-03-12T21:07:14.449Z,49.21
2023-03-12T21:09:40.938Z,49.26
2023-03-12T21:12:07.392Z,49.08
2023-03-12T21:14:33.821Z,49.38
2023-03-12T21:17:00.289Z,49.56
2023-03-12T21:19:26.789Z,49.83
2023-03-12T21:21:53.301Z,49.78
2023-03-12T21:24:19.746Z,49.70
2023-03-12T21:26:46.219Z,49.43
2023-03-12T21:29:12.665Z,49.71
2023-03-12T21:31:39.136Z,49.65
2023-03-12T21:34:07.392Z,49.61
2023-03-12T21:36:35.450Z,49.42
2023-03-12T21:39:01.965Z,49.45
2023-03-12T21:41:28.434Z,49.78
2023-03-12T21:43:54.900Z,49.87
2023-03-12T21:46:21.391Z,49.83
2023-03-12T21:48:48.003Z,50.25
2023-03-12T21:51:14.620Z,50.16
2023-03-12T21:53:41.101Z,50.04
2023-03-12T21:56:07.544Z,49.94
2023-03-12T21:58:34.000Z,49.70
2023-03-12T22:01:00.450Z,49.84
2023-03-12T22:03:26.869Z,49.44
2023-03-12T22:05:53.325Z,49.58
2023-03-12T22:08:19.760Z,49.45
2023-03-12T22:10:46.205Z,49.58
2023-03-12T22:13:12.656Z,49.86
2023-03-12T22:15:39.127Z,50.32
2023-03-12T22:18:05.597Z,50.79
2023-03-12T22:20:32.028Z,50.42
2023-03-12T22:22:58.478Z,50.43
2023-03-12T22:25:24.906Z,50.62
2023-03-12T22:27:51.382Z,50.34
2023-03-12T22:30:17.826Z,50.51
2023-03-12T22:32:44.365Z,51.06
2023-03-12T22:35:10.854Z,51.03
2023-03-12T22:37:37.335Z,51.32
2023-03-12T22:40:03.818Z,51.32
2023-03-12T22:42:30.273Z,51.09
2023-03-12T22:44:56.721Z,51.18
2023-03-12T22:47:23.196Z,50.96
2023-03-12T22:49:49.665Z,50.99
2023-03-12T22:52:16.123Z,51.02
2023-03-12T22:54:42.595Z,51.02
2023-03-12T22:57:09.071Z,50.77
2023-03-12T22:59:35.528Z,51.00
2023-03-12T23:02:02.060Z,50.79
2023-03-12T23:04:28.619Z,50.65
2023-03-12T23:07:04.447Z,50.72
2023-03-12T23:09:37.974Z,51.01
2023-03-12T23:12:04.421Z,51.05
2023-03-12T23:14:30.868Z,51.00
2023-03-12T23:16:57.361Z,50.76
2023-03-12T23:19:23.855Z,50.65
2023-03-12T23:21:50.304Z,51.00
2023-03-12T23:24:16.739Z,50.96
2023-03-12T23:26:43.181Z,50.95
2023-03-12T23:29:09.622Z,51.04
2023-03-12T23:31:36.165Z,50.83
2023-03-12T23:34:02.617Z,50.88
2023-03-12T23:36:29.258Z,50.95
2023-03-12T23:38:55.695Z,50.91
2023-03-12T23:41:22.153Z,50.87
2023-03-12T23:43:48.616Z,50.53
2023-03-12T23:46:15.111Z,50.64
2023-03-12T23:48:41.649Z,50.54
2023-03-12T23:51:08.109Z,50.56
2023-03-12T23:53:34.572Z,50.75
2023-03-12T23:56:01.027Z,50.62
2023-03-12T23:58:27.471Z,50.75
